Time;durP1;ratioP1;P1;durP2;ratioP2;P2;SDS_P1;SDS_P2;PMS_P1;PMS_P2;Temp;Humidity;BMP_temperature;BMP_pressure;BME280_temperature;BME280_humidity;BME280_pressure;Samples;Min_cycle;Max_cycle;Signal;HPM_P1;HPM_P2
2023/11/20 00:01:34;;;;;;;9.37;1.97;;;9.80;99.90;;;-141.84;100.00;119224.81;5029288;28;20284;-62
2023/11/20 00:04:03;;;;;;;9.10;2.40;;;9.70;99.90;;;-141.84;100.00;119224.81;5028762;28;20645;-62
2023/11/20 00:06:31;;;;;;;7.93;2.63;;;9.80;99.90;;;-141.84;100.00;119224.81;5029080;28;20740;-61
2023/11/20 00:09:00;;;;;;;11.23;2.93;;;9.70;99.90;;;-141.84;100.00;119224.81;5030193;28;20241;-62
2023/11/20 00:11:28;;;;;;;6.23;2.17;;;9.80;99.90;;;-141.84;100.00;119224.81;5032217;28;20660;-62
2023/11/20 00:13:56;;;;;;;8.27;2.37;;;9.80;99.90;;;-141.84;100.00;119224.81;5050344;28;20304;-61
2023/11/20 00:16:26;;;;;;;6.73;2.67;;;9.80;99.90;;;-141.84;100.00;119224.81;5050948;28;20245;-62
2023/11/20 00:18:54;;;;;;;6.63;1.90;;;9.70;99.90;;;-141.84;100.00;119224.81;5037588;28;20304;-62
2023/11/20 00:21:22;;;;;;;6.60;2.50;;;9.70;99.90;;;-141.84;100.00;119224.81;5031266;28;20226;-63
2023/11/20 00:23:51;;;;;;;7.73;2.37;;;9.70;99.90;;;-141.84;100.00;119224.81;5030968;28;20226;-62
2023/11/20 00:26:20;;;;;;;5.67;2.07;;;9.80;99.90;;;-141.84;100.00;119224.81;5030760;28;20249;-63
2023/11/20 00:28:48;;;;;;;7.03;1.97;;;9.80;99.90;;;-141.84;100.00;119224.81;5031398;28;20202;-62
2023/11/20 00:31:16;;;;;;;8.60;2.43;;;9.80;99.90;;;-141.84;100.00;119224.81;5030778;28;20252;-63
2023/11/20 00:33:46;;;;;;;8.03;2.13;;;9.70;99.90;;;-141.84;100.00;119224.81;5030705;28;20253;-62
2023/11/20 00:36:14;;;;;;;9.00;2.80;;;9.70;99.90;;;-141.84;100.00;119224.81;5030870;28;20603;-62
2023/11/20 00:38:43;;;;;;;5.73;1.80;;;9.70;99.90;;;-141.84;100.00;119224.81;5030627;28;20226;-62
2023/11/20 00:41:11;;;;;;;6.00;1.87;;;9.70;99.90;;;-141.84;100.00;119224.81;5031114;28;20293;-62
2023/11/20 00:43:40;;;;;;;8.27;2.23;;;9.70;99.90;;;-141.84;100.00;119224.81;5030171;28;20721;-62
2023/11/20 00:46:08;;;;;;;9.93;2.33;;;9.80;99.90;;;-141.84;100.00;119224.81;5030399;28;20237;-62
2023/11/20 00:48:36;;;;;;;6.43;2.10;;;9.70;99.90;;;-141.84;100.00;119224.81;5030389;28;20233;-62
2023/11/20 00:51:06;;;;;;;7.33;2.20;;;9.70;99.90;;;-141.84;100.00;119224.81;5030366;28;20234;-62
2023/11/20 00:53:34;;;;;;;10.37;2.07;;;9.80;99.90;;;-141.84;100.00;119224.81;5030360;28;20642;-62
2023/11/20 00:56:03;;;;;;;9.00;2.20;;;9.70;99.90;;;-141.84;100.00;119224.81;5029820;28;20277;-62
2023/11/20 00:58:31;;;;;;;6.23;2.00;;;9.70;99.90;;;-141.84;100.00;119224.81;5030072;28;20284;-62
2023/11/20 01:00:59;;;;;;;10.53;2.37;;;9.60;99.90;;;-141.84;100.00;119224.81;5030192;28;20250;-63
2023/11/20 01:03:28;;;;;;;7.87;1.93;;;9.70;99.90;;;-141.84;100.00;119224.81;5030168;28;20751;-62
2023/11/20 01:05:56;;;;;;;6.73;2.03;;;9.70;99.90;;;-141.84;100.00;119224.81;5030159;28;20830;-62
2023/11/20 01:08:25;;;;;;;6.77;2.10;;;9.70;99.90;;;-141.84;100.00;119224.81;5024092;28;20290;-62
2023/11/20 01:10:54;;;;;;;6.53;2.07;;;9.60;99.90;;;-141.84;100.00;119224.81;5030519;28;20205;-61
2023/11/20 01:13:22;;;;;;;5.30;1.73;;;9.60;99.90;;;-141.84;100.00;119224.81;5029901;28;20284;-62
2023/11/20 01:15:50;;;;;;;8.23;1.90;;;9.60;99.90;;;-141.84;100.00;119224.81;5042673;28;20237;-62
2023/11/20 01:18:19;;;;;;;7.13;2.07;;;9.60;99.90;;;-141.84;100.00;119224.81;5041487;28;20752;-62
2023/11/20 01:20:48;;;;;;;7.53;2.30;;;9.70;99.90;;;-141.84;100.00;119224.81;5033983;28;20645;-63
2023/11/20 01:23:16;;;;;;;7.80;2.03;;;9.70;99.90;;;-141.84;100.00;119224.81;5050795;28;20578;-62
2023/11/20 01:25:45;;;;;;;8.23;1.93;;;9.60;99.90;;;-141.84;100.00;119224.81;5049882;28;20236;-61
2023/11/20 01:28:13;;;;;;;8.70;2.00;;;9.60;99.90;;;-141.84;100.00;119224.81;5049710;28;20243;-63
2023/11/20 01:30:42;;;;;;;6.37;2.20;;;9.60;99.90;;;-141.84;100.00;119224.81;5049867;28;20237;-62
2023/11/20 01:33:10;;;;;;;8.63;2.80;;;9.70;99.90;;;-141.84;100.00;119224.81;5049762;28;20233;-63
2023/11/20 01:35:42;;;;;;;5.33;2.10;;;9.70;99.90;;;-141.84;100.00;119224.81;5049646;28;20697;-61
2023/11/20 01:38:10;;;;;;;5.90;1.97;;;9.70;99.90;;;-141.84;100.00;119224.81;5050062;28;20569;-62
2023/11/20 01:40:38;;;;;;;7.00;1.97;;;9.60;99.90;;;-141.84;100.00;119224.81;5049668;28;20248;-63
2023/11/20 01:43:08;;;;;;;7.27;1.77;;;9.60;99.90;;;-141.84;100.00;119224.81;5049810;28;20432;-62
2023/11/20 01:45:36;;;;;;;8.20;2.33;;;9.60;99.90;;;-141.84;100.00;119224.81;5049732;28;20232;-62
2023/11/20 01:48:06;;;;;;;6.17;2.23;;;9.70;99.90;;;-141.84;100.00;119224.81;5049794;28;20271;-62
2023/11/20 01:50:36;;;;;;;7.80;2.27;;;9.60;99.90;;;-141.84;100.00;119224.81;5049826;28;20268;-62
2023/11/20 01:53:07;;;;;;;4.90;1.80;;;9.60;99.90;;;-141.84;100.00;119224.81;5050023;28;20763;-62
2023/11/20 01:55:35;;;;;;;5.63;1.93;;;9.60;99.90;;;-141.84;100.00;119224.81;5049095;28;20323;-62
2023/11/20 01:58:03;;;;;;;9.27;2.37;;;9.60;99.90;;;-141.84;100.00;119224.81;5049752;28;20268;-62
2023/11/20 02:00:33;;;;;;;5.20;1.67;;;9.60;99.90;;;-141.84;100.00;119224.81;5049556;28;20347;-62
2023/11/20 02:03:03;;;;;;;10.67;2.40;;;9.60;99.90;;;-141.84;100.00;119224.81;5049538;28;20715;-62
2023/11/20 02:05:32;;;;;;;7.73;2.20;;;9.60;99.90;;;-141.84;100.00;119224.81;5049559;28;20227;-62
2023/11/20 02:08:00;;;;;;;6.80;1.90;;;9.60;99.90;;;-141.84;100.00;119224.81;5048771;28;20700;-62
2023/11/20 02:10:28;;;;;;;5.13;1.87;;;9.60;99.90;;;-141.84;100.00;119224.81;5033288;28;20234;-62
2023/11/20 02:12:58;;;;;;;6.70;1.80;;;9.60;99.90;;;-141.84;100.00;119224.81;5033106;28;20329;-62
2023/11/20 02:15:26;;;;;;;6.63;2.27;;;9.60;99.90;;;-141.84;100.00;119224.81;5042712;28;20232;-63
2023/11/20 02:17:56;;;;;;;7.43;1.97;;;9.70;99.90;;;-141.84;100.00;119224.81;5048409;28;20260;-63
2023/11/20 02:20:24;;;;;;;4.90;2.00;;;9.70;99.90;;;-141.84;100.00;119224.81;5034011;28;20198;-62
2023/11/20 02:22:53;;;;;;;8.73;1.90;;;9.70;99.90;;;-141.84;100.00;119224.81;5053524;28;20244;-62
2023/11/20 02:25:21;;;;;;;7.30;1.93;;;9.70;99.90;;;-141.84;100.00;119224.81;5052644;28;20312;-62
2023/11/20 02:28:04;;;;;;;6.23;1.87;;;9.70;99.90;;;-141.84;100.00;119224.81;5052754;28;20316;-61
2023/11/20 02:30:34;;;;;;;6.70;2.13;;;9.70;99.90;;;-141.84;100.00;119224.81;5052986;28;20232;-62
2023/11/20 02:33:02;;;;;;;5.97;2.07;;;9.70;99.90;;;-141.84;100.00;119224.81;5052627;28;20308;-62
2023/11/20 02:35:30;;;;;;;5.07;1.47;;;9.70;99.90;;;-141.84;100.00;119224.81;5051344;28;20205;-62
2023/11/20 02:37:58;;;;;;;7.80;1.80;;;9.70;99.90;;;-141.84;100.00;119224.81;5053028;28;20750;-62
2023/11/20 02:40:26;;;;;;;6.93;1.93;;;9.70;99.90;;;-141.84;100.00;119224.81;5052269;28;20225;-62
2023/11/20 02:42:55;;;;;;;4.97;1.77;;;9.80;99.90;;;-141.84;100.00;119224.81;5052485;28;20248;-62
2023/11/20 02:45:23;;;;;;;4.17;1.97;;;9.70;99.90;;;-141.84;100.00;119224.81;5052603;28;20320;-61
2023/11/20 02:47:53;;;;;;;5.67;1.63;;;9.70;99.90;;;-141.84;100.00;119224.81;5052732;28;20225;-61
2023/11/20 02:50:21;;;;;;;4.70;1.57;;;9.70;99.90;;;-141.84;100.00;119224.81;5052796;28;20225;-62
2023/11/20 02:52:50;;;;;;;3.53;1.60;;;9.70;99.90;;;-141.84;100.00;119224.81;5052744;28;20225;-61
2023/11/20 02:55:18;;;;;;;5.43;1.37;;;9.80;99.90;;;-141.84;100.00;119224.81;5051958;28;20306;-61
2023/11/20 02:57:47;;;;;;;4.07;1.50;;;9.80;99.90;;;-141.84;100.00;119224.81;5052349;28;20391;-62
2023/11/20 03:00:15;;;;;;;3.47;1.53;;;9.80;99.90;;;-141.84;100.00;119224.81;5052262;28;20225;-61
2023/11/20 03:02:43;;;;;;;5.13;2.37;;;9.80;99.90;;;-141.84;100.00;119224.81;5052614;28;20233;-62
2023/11/20 03:05:13;;;;;;;7.93;1.50;;;9.80;99.90;;;-141.84;100.00;119224.81;5053005;28;20626;-62
2023/11/20 03:07:42;;;;;;;5.23;1.63;;;9.80;99.90;;;-141.84;100.00;119224.81;5052215;28;20264;-63
2023/11/20 03:10:12;;;;;;;4.30;2.13;;;9.90;99.90;;;-141.84;100.00;119224.81;5052304;28;20252;-61
2023/11/20 03:12:40;;;;;;;5.10;1.47;;;10.00;99.90;;;-141.84;100.00;119224.81;5051678;28;20228;-61
2023/11/20 03:15:09;;;;;;;6.23;1.83;;;10.00;99.90;;;-141.84;100.00;119224.81;5052289;28;20241;-62
2023/11/20 03:17:38;;;;;;;8.23;1.77;;;10.00;99.90;;;-141.84;100.00;119224.81;5051790;28;20653;-62
2023/11/20 03:20:07;;;;;;;5.60;1.90;;;9.90;99.90;;;-141.84;100.00;119224.81;5051979;28;20205;-62
2023/11/20 03:22:37;;;;;;;4.60;2.23;;;10.00;99.90;;;-141.84;100.00;119224.81;5051916;28;20252;-62
2023/11/20 03:25:06;;;;;;;3.53;1.80;;;10.10;99.90;;;-141.84;100.00;119224.81;5051851;28;20225;-62
2023/11/20 03:27:35;;;;;;;4.20;1.60;;;10.10;99.90;;;-141.84;100.00;119224.81;5051438;28;20229;-63
2023/11/20 03:30:04;;;;;;;3.40;1.50;;;10.10;99.90;;;-141.84;100.00;119224.81;5050714;28;20279;-61
2023/11/20 03:32:34;;;;;;;9.40;2.27;;;10.10;99.90;;;-141.84;100.00;119224.81;5051648;28;20255;-62
2023/11/20 03:35:02;;;;;;;5.17;1.50;;;10.10;99.90;;;-141.84;100.00;119224.81;5052213;28;20201;-62
2023/11/20 03:37:31;;;;;;;5.60;1.80;;;10.10;99.90;;;-141.84;100.00;119224.81;5051404;28;20810;-62
2023/11/20 03:40:00;;;;;;;6.17;1.90;;;10.10;99.90;;;-141.84;100.00;119224.81;5051681;28;20304;-62
2023/11/20 03:42:28;;;;;;;4.60;1.37;;;10.20;99.90;;;-141.84;100.00;119224.81;5051448;28;20231;-62
2023/11/20 03:44:57;;;;;;;4.03;1.83;;;10.20;99.90;;;-141.84;100.00;119224.81;5051598;28;20253;-62
2023/11/20 03:47:25;;;;;;;4.80;1.57;;;10.20;99.90;;;-141.84;100.00;119224.81;5051740;28;20603;-62
2023/11/20 03:49:53;;;;;;;4.23;1.60;;;10.20;99.90;;;-141.84;100.00;119224.81;5052178;28;20201;-62
2023/11/20 03:52:21;;;;;;;2.73;1.40;;;10.20;99.90;;;-141.84;100.00;119224.81;5051401;28;20304;-62
2023/11/20 03:54:50;;;;;;;7.00;1.50;;;10.20;99.90;;;-141.84;100.00;119224.81;5051116;28;20576;-62
2023/11/20 03:57:19;;;;;;;4.63;1.27;;;10.20;99.90;;;-141.84;100.00;118689.38;5050936;28;20229;-62
2023/11/20 03:59:48;;;;;;;5.73;1.77;;;10.40;99.90;;;-141.84;100.00;115490.59;5051535;28;20283;-62
2023/11/20 04:02:16;;;;;;;7.43;1.97;;;10.40;99.90;;;-141.84;100.00;115490.59;5051645;28;20256;-62
2023/11/20 04:04:45;;;;;;;5.77;1.47;;;10.50;99.90;;;-141.84;100.00;116290.06;5051528;28;20508;-62
2023/11/20 04:07:13;;;;;;;5.03;1.37;;;10.40;99.90;;;-141.84;100.00;114424.91;5050984;28;20734;-62
2023/11/20 04:09:41;;;;;;;6.00;1.67;;;10.50;99.90;;;-141.84;100.00;112826.88;5051146;28;20279;-62
2023/11/20 04:12:10;;;;;;;4.33;1.20;;;10.50;99.90;;;-141.84;100.00;112294.34;5050603;28;20226;-62
2023/11/20 04:14:39;;;;;;;4.00;1.17;;;10.60;99.90;;;-141.84;100.00;111495.69;5050751;28;20229;-63
2023/11/20 04:17:07;;;;;;;3.10;1.67;;;10.60;99.90;;;-141.84;100.00;112294.34;5051185;28;20236;-64
2023/11/20 04:19:36;;;;;;;3.80;1.30;;;10.50;99.90;;;-141.84;100.00;111495.69;5050742;28;20708;-62
2023/11/20 04:22:07;;;;;;;4.47;1.37;;;10.60;99.90;;;-141.84;100.00;112028.13;5050784;28;20644;-62
2023/11/20 04:24:35;;;;;;;3.10;1.00;;;10.60;99.90;;;-141.84;100.00;109898.81;5050870;28;20684;-63
2023/11/20 04:27:03;;;;;;;4.00;1.10;;;10.60;99.90;;;-141.84;100.00;104846.16;5050153;28;20786;-64
2023/11/20 04:29:32;;;;;;;4.00;1.30;;;10.60;99.90;;;-141.84;100.00;100861.66;5050513;28;20299;-64
2023/11/20 04:32:01;;;;;;;3.33;1.20;;;10.70;99.90;;;-141.84;100.00;102720.59;5050940;28;20233;-64
2023/11/20 04:34:29;;;;;;;3.00;1.30;;;10.70;99.90;;;-141.84;100.00;99268.97;5050552;28;20663;-62
2023/11/20 04:36:57;;;;;;;7.30;1.50;;;10.80;99.90;;;-141.84;100.00;97676.88;5050608;28;20240;-63
2023/11/20 04:39:26;;;;;;;3.30;1.10;;;10.80;99.90;;;-141.84;100.00;95024.81;5050698;28;20228;-62
2023/11/20 04:41:54;;;;;;;5.33;1.30;;;10.80;99.90;;;-141.84;100.00;95289.94;5050510;28;20275;-62
2023/11/20 04:44:22;;;;;;;4.13;1.23;;;10.80;99.90;;;-141.84;100.00;88402.22;5050479;28;20365;-62
2023/11/20 04:46:50;;;;;;;6.87;1.33;;;10.90;99.90;;;-141.84;100.00;87872.91;5051090;28;20240;-63
2023/11/20 04:49:20;;;;;;;5.17;1.30;;;11.00;99.90;;;-141.84;100.00;89461.13;5050253;28;20304;-62
2023/11/20 04:51:49;;;;;;;4.50;1.13;;;10.90;99.90;;;-141.84;100.00;82847.66;5050243;28;20732;-62
2023/11/20 04:54:18;;;;;;;5.53;1.20;;;11.00;99.90;;;-141.84;100.00;84169.50;5050266;28;20227;-62
2023/11/20 04:56:47;;;;;;;4.70;1.20;;;10.90;99.90;;;-141.84;100.00;86020.75;5049889;28;20261;-62
2023/11/20 04:59:16;;;;;;;2.80;1.10;;;10.90;99.90;;;-141.84;100.00;87079.03;5050655;28;20225;-62
2023/11/20 05:01:44;;;;;;;3.77;1.10;;;10.90;99.90;;;-141.84;100.00;87872.91;5050606;28;20225;-63
2023/11/20 05:04:12;;;;;;;2.60;1.03;;;10.90;99.90;;;-141.84;100.00;84433.91;5050009;28;20299;-61
2023/11/20 05:06:42;;;;;;;2.53;1.20;;;11.00;99.90;;;-141.84;100.00;89725.88;5050187;28;20279;-62
2023/11/20 05:09:10;;;;;;;2.03;0.87;;;10.90;99.90;;;-141.84;100.00;87608.25;5048630;28;20688;-62
2023/11/20 05:11:38;;;;;;;2.50;1.10;;;10.90;99.90;;;-141.84;100.00;88402.22;5049964;28;20216;-62
2023/11/20 05:14:07;;;;;;;2.77;1.00;;;11.00;99.90;;;-141.84;100.00;86549.84;5050360;28;20225;-62
2023/11/20 05:16:35;;;;;;;3.63;1.00;;;10.90;99.90;;;-141.84;100.00;83376.34;5050033;28;20743;-62
2023/11/20 05:19:03;;;;;;;5.43;1.30;;;10.90;99.90;;;-141.84;100.00;81526.28;5049693;28;20221;-62
2023/11/20 05:21:31;;;;;;;1.70;0.90;;;11.00;99.90;;;-141.84;100.00;75189.69;5050021;28;20279;-61
2023/11/20 05:24:01;;;;;;;4.00;1.30;;;11.00;99.90;;;-141.84;100.00;73870.81;5047827;28;20419;-62
2023/11/20 05:26:29;;;;;;;2.10;1.00;;;11.10;99.90;;;-141.84;100.00;78356.72;5049695;28;20229;-62
2023/11/20 05:28:57;;;;;;;2.67;1.20;;;11.00;99.90;;;-141.84;100.00;74925.88;5050041;28;20260;-62
2023/11/20 05:31:25;;;;;;;2.33;0.90;;;11.10;99.90;;;-141.84;100.00;71234.38;5049932;28;20649;-62
2023/11/20 05:33:54;;;;;;;3.20;0.80;;;11.10;99.90;;;-141.84;100.00;70707.31;5049746;28;20225;-62
2023/11/20 05:36:23;;;;;;;2.83;0.83;;;11.00;99.90;;;-141.84;100.00;75453.50;5049931;28;20225;-62
2023/11/20 05:38:51;;;;;;;3.33;0.93;;;11.10;99.90;;;-141.84;100.00;75189.69;5049716;28;20662;-63
2023/11/20 05:41:21;;;;;;;1.43;0.80;;;11.00;99.90;;;-141.84;100.00;72288.75;5049600;28;20225;-62
2023/11/20 05:43:49;;;;;;;1.63;0.80;;;11.10;99.90;;;-141.84;100.00;75717.34;5054304;28;20205;-62
2023/11/20 05:46:17;;;;;;;3.03;0.80;;;11.00;99.90;;;-141.84;100.00;73079.69;5054098;28;20225;-62
2023/11/20 05:48:46;;;;;;;2.77;0.90;;;11.00;99.90;;;-141.84;100.00;73870.81;5053877;28;20247;-62
2023/11/20 05:51:18;;;;;;;2.53;1.00;;;11.00;99.90;;;-141.84;100.00;71761.53;5053938;28;20237;-63
2023/11/20 05:53:47;;;;;;;1.77;0.73;;;11.00;99.90;;;-141.84;100.00;68863.09;5053801;28;20286;-62
2023/11/20 05:56:15;;;;;;;1.27;0.70;;;11.10;99.90;;;-141.84;100.00;66229.97;5053865;28;20230;-62
2023/11/20 05:58:45;;;;;;;7.80;4.00;;;11.10;99.90;;;-141.84;100.00;64914.06;5053349;28;20263;-62
2023/11/20 06:01:13;;;;;;;2.17;1.20;;;11.10;99.90;;;-141.84;100.00;71761.53;5053602;28;20786;-62
2023/11/20 06:03:42;;;;;;;1.67;0.73;;;11.10;99.90;;;-141.84;100.00;70443.78;5053504;28;20223;-62
2023/11/20 06:06:18;;;;;;;4.32;1.20;;;11.20;99.90;;;-141.84;100.00;75717.34;5053328;28;20298;-62
2023/11/20 06:08:46;;;;;;;2.33;0.97;;;11.10;99.90;;;-141.84;100.00;73079.69;5053177;28;20770;-61
2023/11/20 06:11:21;;;;;;;2.33;1.47;;;11.10;99.90;;;-141.84;100.00;72816.03;5053855;28;20288;-62
2023/11/20 06:13:51;;;;;;;1.23;0.70;;;11.10;99.90;;;-141.84;100.00;73607.09;5053469;28;20240;-62
2023/11/20 06:16:19;;;;;;;1.80;0.80;;;11.20;99.90;;;-141.84;100.00;69389.94;5053089;28;20244;-62
2023/11/20 06:18:47;;;;;;;2.80;0.90;;;11.20;99.90;;;-141.84;100.00;71761.53;5052930;28;20221;-62
2023/11/20 06:21:15;;;;;;;0.97;0.70;;;11.20;99.90;;;-141.84;100.00;71761.53;5053162;28;20649;-61
2023/11/20 06:23:43;;;;;;;1.20;1.10;;;11.20;99.90;;;-141.84;100.00;71761.53;5052931;28;20308;-62
2023/11/20 06:26:12;;;;;;;1.90;0.60;;;11.20;99.90;;;-141.84;100.00;74662.09;5053133;28;20233;-62
2023/11/20 06:28:41;;;;;;;1.83;0.90;;;11.20;99.90;;;-141.84;100.00;77036.81;5052591;28;20666;-62
2023/11/20 06:31:11;;;;;;;2.70;0.87;;;11.20;99.90;;;-141.84;100.00;78356.72;5053036;28;20383;-62
2023/11/20 06:33:40;;;;;;;1.73;0.80;;;11.20;99.90;;;-141.84;100.00;79941.19;5052922;28;20240;-62
2023/11/20 06:36:10;;;;;;;1.63;0.90;;;11.20;99.90;;;-141.84;100.00;78620.75;5052683;28;20237;-62
2023/11/20 06:38:39;;;;;;;1.77;0.83;;;11.20;99.90;;;-141.84;100.00;80469.50;5052681;28;20217;-62
2023/11/20 06:41:08;;;;;;;1.60;0.90;;;11.10;99.90;;;-141.84;100.00;80469.50;5052812;28;20625;-62
2023/11/20 06:43:36;;;;;;;1.77;0.60;;;11.20;99.90;;;-141.84;100.00;81790.53;5052651;28;20283;-61
2023/11/20 06:46:05;;;;;;;2.00;1.30;;;11.20;99.90;;;-141.84;100.00;78620.75;5052406;28;20678;-62
2023/11/20 06:48:36;;;;;;;2.50;0.70;;;11.20;99.90;;;-141.84;100.00;78620.75;5052477;28;20740;-61
2023/11/20 06:51:08;;;;;;;2.23;0.70;;;11.20;99.90;;;-141.84;100.00;78356.72;5052548;28;20287;-62
2023/11/20 06:53:36;;;;;;;1.47;0.60;;;11.20;99.90;;;-141.84;100.00;77564.72;5051467;28;20272;-62
2023/11/20 06:56:06;;;;;;;1.40;0.63;;;11.20;99.90;;;-141.84;100.00;83112.00;5052778;28;20244;-62
2023/11/20 06:58:35;;;;;;;1.30;0.60;;;11.10;99.90;;;-141.84;100.00;80469.50;5052010;28;20338;-63
2023/11/20 07:01:04;;;;;;;1.40;0.70;;;11.20;99.90;;;-141.84;100.00;81262.06;5050881;28;20279;-63
2023/11/20 07:03:34;;;;;;;2.07;0.70;;;11.10;99.90;;;-141.84;100.00;79412.97;5051073;28;20778;-63
2023/11/20 07:06:03;;;;;;;1.47;0.90;;;11.20;99.90;;;-141.84;100.00;80997.84;5050065;28;20237;-63
2023/11/20 07:08:31;;;;;;;2.30;0.90;;;11.10;99.90;;;-141.84;100.00;80733.66;5051864;28;20631;-63
2023/11/20 07:10:59;;;;;;;1.73;0.80;;;11.10;99.90;;;-141.84;100.00;71497.94;5032696;28;20210;-62
2023/11/20 07:13:27;;;;;;;3.37;1.00;;;11.20;99.90;;;-141.84;100.00;73870.81;5050654;28;20230;-62
2023/11/20 07:15:57;;;;;;;2.90;0.82;;;11.20;99.90;;;-141.84;100.00;69389.94;5052292;28;20250;-65
2023/11/20 07:18:26;;;;;;;2.03;0.73;;;11.30;99.90;;;-141.84;97.99;57027.72;5052132;28;20310;-63
2023/11/20 07:20:56;;;;;;;2.50;0.97;;;11.30;99.90;;;-141.84;98.02;55714.84;5051977;28;20228;-65
2023/11/20 07:23:24;;;;;;;4.80;0.93;;;11.40;99.90;;;-141.84;96.76;50467.75;5052221;28;20186;-66
2023/11/20 07:25:54;;;;;;;3.17;1.10;;;11.40;99.90;;;-141.84;95.74;45489.41;5050007;28;20297;-66
2023/11/20 07:28:22;;;;;;;2.17;0.90;;;11.50;99.90;;;-141.84;95.06;41510.44;5051737;28;20252;-65
2023/11/20 07:30:50;;;;;;;2.67;0.90;;;11.50;99.90;;;-141.84;94.26;35480.16;5051332;28;20582;-64
2023/11/20 07:33:19;;;;;;;1.83;0.90;;;11.60;99.90;;;-141.84;93.81;34578.34;5051838;28;20225;-65
2023/11/20 07:35:47;;;;;;;2.83;0.80;;;11.60;99.90;;;-141.84;95.11;40521.44;5051706;28;20253;-64
2023/11/20 07:38:16;;;;;;;2.00;0.90;;;11.60;99.90;;;-141.84;93.75;34608.97;5052123;28;20292;-65
2023/11/20 07:40:45;;;;;;;3.97;0.80;;;11.60;99.90;;;-141.84;90.46;24139.06;5051704;28;20239;-64
2023/11/20 07:43:13;;;;;;;6.77;0.90;;;11.70;99.90;;;-141.84;90.69;23795.22;5051629;28;20291;-64
2023/11/20 07:45:42;;;;;;;2.53;0.70;;;11.80;99.90;;;-141.84;91.93;26538.63;5051616;28;20225;-64
2023/11/20 07:48:10;;;;;;;2.23;0.90;;;11.80;99.90;;;-141.84;91.50;25677.53;5051545;28;20228;-64
2023/11/20 07:50:39;;;;;;;3.63;0.90;;;11.70;99.90;;;-141.84;91.25;25138.19;5051290;28;20199;-65
2023/11/20 07:53:07;;;;;;;2.23;0.73;;;11.70;99.90;;;-141.84;92.31;27283.81;5051652;28;20258;-65
2023/11/20 07:55:37;;;;;;;2.57;0.80;;;11.70;99.90;;;-141.84;91.24;24686.41;5050669;28;20253;-64
2023/11/20 07:58:05;;;;;;;2.57;0.97;;;11.70;99.90;;;-141.84;91.00;24244.88;5050473;28;20666;-65
2023/11/20 08:00:34;;;;;;;2.43;0.97;;;11.80;99.90;;;-141.84;90.31;23278.50;5049182;28;20329;-65
2023/11/20 08:03:02;;;;;;;2.23;0.80;;;11.70;99.90;;;-141.84;91.64;25638.88;5048942;28;20772;-65
2023/11/20 08:05:30;;;;;;;1.57;1.07;;;11.70;99.90;;;-141.84;89.71;22536.13;5050163;28;20194;-64
2023/11/20 08:08:11;;;;;;;1.80;1.10;;;11.70;99.90;;;-141.84;88.65;21425.84;5041618;28;20192;-64
2023/11/20 08:10:41;;;;;;;2.10;1.20;;;11.70;99.90;;;-141.84;88.31;21141.19;5050490;28;20778;-65
2023/11/20 08:13:09;;;;;;;3.20;1.03;;;11.80;99.90;;;-141.84;88.22;21037.50;5050890;28;20316;-64
2023/11/20 08:15:37;;;;;;;6.70;1.23;;;11.90;99.90;;;-141.84;88.95;21547.81;5050885;28;20225;-65
2023/11/20 08:18:06;;;;;;;1.70;1.07;;;11.90;99.90;;;-141.84;89.27;21822.31;5049983;28;20224;-64
2023/11/20 08:20:35;;;;;;;5.43;1.20;;;11.80;99.90;;;-141.84;87.51;20720.38;5049305;28;20890;-64
2023/11/20 08:23:03;;;;;;;3.17;1.00;;;11.90;99.90;;;-141.84;89.07;21771.50;5051215;28;20206;-65
2023/11/20 08:25:31;;;;;;;4.23;1.10;;;11.90;99.90;;;-141.84;90.20;23020.19;5050251;28;20661;-64
2023/11/20 08:28:01;;;;;;;2.10;1.13;;;11.80;99.90;;;-141.84;91.58;25533.03;5050609;28;20231;-64
2023/11/20 08:30:32;;;;;;;4.07;1.20;;;11.80;99.90;;;-141.84;93.88;33582.94;5050370;28;20225;-64
2023/11/20 08:33:00;;;;;;;3.47;1.40;;;11.70;99.90;;;-141.84;94.69;37390.56;5049758;28;20232;-64
2023/11/20 08:35:29;;;;;;;3.05;1.00;;;11.60;99.90;;;-141.84;93.05;30791.81;5050124;28;20209;-64
2023/11/20 08:37:58;;;;;;;4.43;1.73;;;11.60;99.90;;;-141.84;92.30;27544.47;5051083;28;20247;-64
2023/11/20 08:40:26;;;;;;;4.13;1.50;;;11.70;99.90;;;-141.84;92.54;28353.00;5050295;28;20225;-64
2023/11/20 08:42:55;;;;;;;2.65;1.25;;;11.60;99.90;;;-141.84;90.19;23378.19;5050076;28;20641;-63
2023/11/20 08:45:26;;;;;;;2.37;1.20;;;11.80;99.90;;;-141.84;88.18;21013.13;5050703;28;20233;-64
2023/11/20 08:47:55;;;;;;;3.70;1.10;;;11.80;99.90;;;-141.84;87.92;20840.31;5050459;28;20664;-65
2023/11/20 08:50:25;;;;;;;3.00;1.10;;;11.90;99.90;;;-141.84;87.93;20915.53;5050349;28;20679;-64
2023/11/20 08:52:54;;;;;;;4.17;1.10;;;12.00;99.90;;;-141.84;89.53;21954.50;5051183;28;20252;-64
2023/11/20 08:55:23;;;;;;;2.10;1.27;;;11.90;99.90;;;-141.84;90.23;23095.44;5049934;28;20240;-64
2023/11/20 08:57:51;;;;;;;1.80;1.10;;;11.90;99.90;;;-141.84;88.04;21015.16;5049878;28;20233;-64
2023/11/20 09:00:20;;;;;;;4.27;2.03;;;11.90;99.90;;;-141.84;89.54;22501.53;5050203;28;20236;-64
2023/11/20 09:02:49;;;;;;;2.83;1.27;;;11.80;99.90;;;-141.84;87.42;20695.97;5050083;28;20252;-64
2023/11/20 09:05:18;;;;;;;4.03;1.17;;;11.80;99.90;;;-141.84;88.27;21283.50;5050926;28;20228;-65
2023/11/20 09:07:46;;;;;;;5.47;1.33;;;11.80;99.90;;;-141.84;88.70;21370.94;5050350;28;20579;-65
2023/11/20 09:10:14;;;;;;;3.57;1.20;;;11.80;99.90;;;-141.84;87.79;20948.06;5048361;28;20240;-64
2023/11/20 09:12:42;;;;;;;1.40;0.83;;;11.90;99.90;;;-141.84;84.67;19895.13;5047292;28;20224;-63
2023/11/20 09:15:11;;;;;;;2.85;1.10;;;12.00;99.90;;;-141.84;84.82;19891.06;5047074;28;20225;-62
2023/11/20 09:17:42;;;;;;;3.13;1.30;;;12.10;99.90;;;-141.84;83.93;19797.59;5048559;28;20932;-63
2023/11/20 09:20:18;;;;;;;4.75;1.13;;;12.20;99.90;;;-141.84;81.69;19470.38;5037295;28;20190;-61
2023/11/20 09:22:47;;;;;;;1.55;1.10;;;12.20;99.90;;;-141.84;81.48;19531.34;5018908;28;20218;-62
2023/11/20 09:25:15;;;;;;;1.70;1.10;;;12.30;99.90;;;-141.84;81.23;19460.22;5026020;28;20225;-63
2023/11/20 09:27:44;;;;;;;2.55;1.00;;;12.20;99.90;;;-141.84;80.19;19448.03;5029329;28;20214;-64
2023/11/20 09:30:14;;;;;;;1.85;0.95;;;12.30;99.90;;;-141.84;79.65;19387.06;5029414;28;20241;-63
2023/11/20 09:32:44;;;;;;;2.40;0.90;;;12.30;99.90;;;-141.84;79.73;19409.41;5029491;28;20236;-64
2023/11/20 09:35:15;;;;;;;3.08;1.15;;;12.40;99.90;;;-141.84;79.65;19421.63;5030293;28;20202;-70
2023/11/20 09:37:44;;;;;;;1.58;1.10;;;12.40;99.90;;;-141.84;78.44;19370.81;5025820;28;20233;-71
2023/11/20 09:40:13;;;;;;;3.22;0.93;;;12.50;99.90;;;-141.84;76.39;19342.34;5029113;28;20248;-62
2023/11/20 09:42:43;;;;;;;2.20;1.05;;;12.60;99.90;;;-141.84;77.74;19413.47;5027180;28;20206;-63
2023/11/20 09:45:27;;;;;;;2.15;1.17;;;12.50;99.90;;;-141.84;78.05;19383.00;5026816;28;20293;-66
2023/11/20 09:47:56;;;;;;;3.78;1.08;;;12.60;99.90;;;-141.84;75.81;19322.03;5029194;28;20285;-70
2023/11/20 09:50:28;;;;;;;2.25;1.20;;;12.60;99.90;;;-141.84;75.94;19334.22;5029172;28;20736;-69
2023/11/20 09:52:58;;;;;;;2.78;1.00;;;12.70;99.90;;;-141.84;76.20;19332.19;5029781;28;20222;-68
2023/11/20 09:55:27;;;;;;;2.92;1.10;;;12.70;99.90;;;-141.84;75.95;19301.72;5028505;28;20226;-68
2023/11/20 09:57:55;;;;;;;2.55;0.93;;;12.70;99.90;;;-141.84;76.33;19307.81;5029080;28;20232;-68
2023/11/20 10:00:24;;;;;;;3.55;1.23;;;12.70;99.90;;;-141.84;76.86;19332.19;5029248;28;20226;-67
2023/11/20 10:02:54;;;;;;;3.38;0.80;;;12.70;99.90;;;-141.84;75.33;19358.63;5029191;28;20650;-67
2023/11/20 10:05:29;;;;;;;2.13;1.17;;;12.70;99.90;;;-141.84;76.02;19328.13;5029068;28;20681;-66
2023/11/20 10:08:02;;;;;;;3.13;1.00;;;12.60;99.90;;;-141.84;76.26;19322.03;5027804;28;20213;-67